Bei Facebook empfehlenBei Twitter postenGoogle plusPinterest

Das Wetter im Erzgebirge am 02.01.2015

Wetter und Klima am 02.01.2015 Holzhau im Erzgebirge (630m ü.NN)
Letzte gemessene Temperatur und Uhrzeit der Messung23:45:00 Uhr0.80 °C
Temperatur (Maximum / Höchstwert) und Uhrzeit der Messung12:00:00 Uhr3.50 °C
Temperatur (Minimum / Tiefstwert) und Uhrzeit der Messung03:30:00-1.50 °C
Errechneter Absolutwert der Temperaturschwankungen zwischen Tmin und Tmax des Tages5.00 K
Errechnete Tagesmitteltemperatur1.11042 °C
Gesamt - Niederschlag des Tages (in flüssiger Form)1.04 Liter / m²
Luftdruck (Maximum / Höchstwert) und Zeitpunkt der Messung00:00:00 Uhr1024.70 hPa
Luftdruck (Minimum / Tiefstwert) und Zeitpunkt der Messung09:30:00 Uhr1018.00 hPa
Errechneter Absolutwert der Luftdruckschwankungen des Tages6.70 hPa
Höchste gemessene Windgeschwindigkeit und Uhrzeit der Messung10:45:00 Uhr11.88 km/h
Errechnete Windhäufigkeit in Relation zu den Messwerten des Tages18.75000 %
Niedrigste Windkühle (Windchill) und Zeitpunkt der Messung18:30:00 Uhr-2.00 °C
Taupunkt (Maximum / Höchstwert) und Uhrzeit der Messung12:00:00 Uhr2.80 °C
Taupunkt (Minimum / Tiefstwert) und Uhrzeit der Messung03:30:00-2.40 °C
Anzahl der automatisch eingelesenen Messwerte 96

Detaillierte Wetter- und Klima- Messwerte für den 02.01.2015 in Holzhau im Erzgebirge (630m ü.NN)
ZeitTemperaturLuftdruckRel. LuftfeuchteWindWindrichtungWindchillTaupunktNiederschlag l/m²
23:45:000.80 °C1022.70 hPa87.00 %-1.10 °C1.04
23:30:000.80 °C1022.50 hPa87.00 %-1.10 °C1.04
23:15:000.90 °C1022.60 hPa87.00 %-1.00 °C1.04
23:00:001.00 °C1022.50 hPa88.00 %-0.80 °C1.04
22:45:000.90 °C1022.40 hPa89.00 %6.84 km/hW-1.30 °C-0.70 °C1.04
22:30:000.90 °C1022.70 hPa89.00 %-0.70 °C1.04
22:15:001.10 °C1022.80 hPa89.00 %-0.50 °C1.04
22:00:001.10 °C1022.70 hPa89.00 %-0.50 °C1.04
21:45:001.10 °C1022.70 hPa89.00 %-0.50 °C1.04
21:30:001.10 °C1022.60 hPa89.00 %9.72 km/hW-1.90 °C-0.50 °C1.04
21:15:001.10 °C1022.40 hPa90.00 %5.04 km/hNNW-0.40 °C-0.40 °C1.04
21:00:001.20 °C1022.30 hPa91.00 %7.20 km/hNW-1.10 °C-0.10 °C1.04
20:45:001.20 °C1022.30 hPa91.00 %-0.10 °C1.04
20:30:001.20 °C1021.90 hPa91.00 %-0.10 °C1.04
20:15:001.20 °C1022.00 hPa91.00 %-0.10 °C1.04
20:00:001.20 °C1021.80 hPa92.00 %0.00 °C1.04
19:45:001.10 °C1021.80 hPa92.00 %-0.10 °C1.04
19:30:001.20 °C1021.70 hPa92.00 %0.00 °C1.04
19:15:001.20 °C1021.30 hPa92.00 %7.20 km/hWSW-1.10 °C0.00 °C1.04
19:00:001.30 °C1021.30 hPa92.00 %9.36 km/hWNW-1.60 °C0.10 °C1.04
18:45:001.30 °C1021.00 hPa92.00 %0.10 °C1.04
18:30:001.30 °C1020.60 hPa92.00 %11.16 km/hWSW-2.00 °C0.10 °C1.04
18:15:001.40 °C1020.40 hPa92.00 %0.20 °C1.04
18:00:001.40 °C1020.40 hPa93.00 %4.32 km/hW1.40 °C0.40 °C1.04
17:45:001.50 °C1020.20 hPa93.00 %0.50 °C1.04
17:30:001.60 °C1019.80 hPa93.00 %0.60 °C1.04
17:15:001.80 °C1019.90 hPa93.00 %8.64 km/hNNW-0.80 °C0.80 °C1.04
17:00:001.70 °C1019.70 hPa94.00 %0.80 °C1.04
16:45:001.80 °C1020.00 hPa94.00 %2.52 km/hW1.80 °C0.90 °C1.04
16:30:001.80 °C1019.80 hPa94.00 %0.90 °C1.04
16:15:001.90 °C1019.60 hPa94.00 %1.00 °C1.04
16:00:001.90 °C1019.40 hPa94.00 %1.00 °C1.04
15:45:002.10 °C1019.30 hPa94.00 %9.36 km/hWSW-0.60 °C1.20 °C1.04
15:30:002.10 °C1019.00 hPa94.00 %1.20 °C1.04
15:15:002.10 °C1018.80 hPa94.00 %7.56 km/hWNW-0.10 °C1.20 °C1.04
15:00:002.20 °C1018.70 hPa94.00 %1.30 °C1.04
14:45:002.30 °C1018.80 hPa94.00 %1.40 °C1.04
14:30:002.30 °C1018.80 hPa94.00 %6.48 km/hNNW0.40 °C1.40 °C1.04
14:15:002.40 °C1018.30 hPa94.00 %1.08 km/hNW2.40 °C1.50 °C1.04
14:00:002.60 °C1018.10 hPa94.00 %1.70 °C1.04
13:45:002.70 °C1018.10 hPa94.00 %1.80 °C1.04
13:30:002.80 °C1018.10 hPa94.00 %1.90 °C1.04
13:15:002.90 °C1018.10 hPa95.00 %2.20 °C1.04
13:00:003.00 °C1018.10 hPa95.00 %2.30 °C1.04
12:45:003.10 °C1018.10 hPa95.00 %2.40 °C1.04
12:30:003.20 °C1018.30 hPa95.00 %6.84 km/hNW1.40 °C2.50 °C1.04
12:15:003.40 °C1018.10 hPa95.00 %10.08 km/hSW0.70 °C2.70 °C1.04
12:00:003.50 °C1018.10 hPa95.00 %2.80 °C0.52
11:45:003.40 °C1018.30 hPa95.00 %7.20 km/hWNW1.50 °C2.70 °C0.52
11:30:003.40 °C1018.20 hPa95.00 %2.70 °C0.52
11:15:003.30 °C1018.30 hPa95.00 %2.60 °C0.52
11:00:003.30 °C1018.30 hPa95.00 %2.60 °C0.52
10:45:003.30 °C1018.60 hPa95.00 %11.88 km/hW0.20 °C2.60 °C0.52
10:30:003.20 °C1018.60 hPa95.00 %2.50 °C0.52
10:15:002.90 °C1018.20 hPa95.00 %2.20 °C0.52
10:00:002.50 °C1018.20 hPa94.00 %1.60 °C 
09:45:002.30 °C1018.10 hPa94.00 %1.40 °C 
09:30:002.20 °C1018.00 hPa94.00 %1.30 °C 
09:15:002.30 °C1018.20 hPa94.00 %1.40 °C 
09:00:002.60 °C1018.60 hPa94.00 %1.70 °C 
08:45:002.50 °C1018.80 hPa94.00 %1.60 °C 
08:30:001.80 °C1018.80 hPa94.00 %0.90 °C 
08:15:000.90 °C1018.70 hPa95.00 %0.20 °C 
08:00:000.60 °C1018.90 hPa94.00 %-0.30 °C 
07:45:000.60 °C1018.90 hPa94.00 %-0.30 °C 
07:30:000.30 °C1019.40 hPa94.00 %-0.50 °C 
07:15:000.10 °C1019.60 hPa94.00 %-0.70 °C 
07:00:00-0.10 °C1019.70 hPa94.00 %-1.00 °C 
06:45:00-0.40 °C1019.80 hPa94.00 %-1.30 °C 
06:30:00-0.90 °C1019.90 hPa94.00 %-1.80 °C 
06:15:00-1.20 °C1019.70 hPa94.00 %-2.10 °C 
06:00:00-1.20 °C1020.00 hPa94.00 %-2.10 °C 
05:45:00-1.20 °C1020.20 hPa94.00 %-2.10 °C 
05:30:00-0.90 °C1020.40 hPa94.00 %-1.80 °C 
05:15:00-0.90 °C1020.40 hPa94.00 %-1.80 °C 
05:00:00-0.80 °C1020.60 hPa94.00 %-1.70 °C 
04:45:00-0.50 °C1020.90 hPa94.00 %-1.40 °C 
04:30:00-0.60 °C1021.10 hPa94.00 %-1.50 °C 
04:15:00-0.80 °C1021.40 hPa94.00 %-1.70 °C 
04:00:00-1.10 °C1021.60 hPa94.00 %-2.00 °C 
03:45:00-1.40 °C1022.10 hPa94.00 %-2.30 °C 
03:30:00-1.50 °C1022.30 hPa94.00 %-2.40 °C 
03:15:00-1.40 °C1022.70 hPa94.00 %-2.30 °C 
03:00:00-1.10 °C1022.60 hPa94.00 %-2.00 °C 
02:45:00-0.70 °C1022.80 hPa94.00 %-1.60 °C 
02:30:00-0.50 °C1022.90 hPa94.00 %-1.40 °C 
02:15:00-0.40 °C1023.00 hPa94.00 %-1.30 °C 
02:00:00-0.30 °C1023.10 hPa94.00 %-1.20 °C 
01:45:00-0.20 °C1023.20 hPa94.00 %-1.10 °C 
01:30:000.10 °C1023.30 hPa94.00 %-0.70 °C 
01:15:00-0.10 °C1023.20 hPa94.00 %-1.00 °C 
01:00:00-0.10 °C1023.50 hPa94.00 %-1.00 °C 
00:45:000.10 °C1023.80 hPa94.00 %-0.70 °C 
00:30:00-0.10 °C1024.10 hPa94.00 %-1.00 °C 
00:15:00-0.20 °C1024.30 hPa94.00 %-1.10 °C 
00:00:00-0.20 °C1024.70 hPa94.00 %-1.10 °C 

Permanenter Link zu dieser Seite: Wetter im Erzgebirge am 02.01.2015
Performance-Info: Die Erstellung der Seite / Statistik(en) / Tabelle(n) erforderte 5 Datenbankserver-Abfrage(n) und dauerte 96 Millisekunden. (Dieser Messwert ist von der Gesamt-Auslastung des Servers abhängig.)
Erzgebirge - Wetter | Erzgebirge - Wetter (Mobilgeräte) | Komplette Klimadatenbank